Time;durP1;ratioP1;P1;durP2;ratioP2;P2;SDS_P1;SDS_P2;PMS_P1;PMS_P2;Temp;Humidity;BMP_temperature;BMP_pressure;BME280_temperature;BME280_humidity;BME280_pressure;Samples;Min_cycle;Max_cycle;Signal;HPM_P1;HPM_P2
2022/01/19 00:01:34;;;;;;;48.27;28.93;;;5.20;99.90;;;;;;5014563;28;20178;-80
2022/01/19 00:04:00;;;;;;;49.07;28.57;;;5.20;99.90;;;;;;5009447;28;20220;-78
2022/01/19 00:06:26;;;;;;;51.63;29.20;;;5.20;99.90;;;;;;5026075;28;20169;-80
2022/01/19 00:08:52;;;;;;;49.13;28.40;;;5.20;99.90;;;;;;5038157;28;20187;-79
2022/01/19 00:11:19;;;;;;;55.17;30.07;;;5.10;99.90;;;;;;5025601;28;20205;-79
2022/01/19 00:13:44;;;;;;;47.40;27.60;;;5.00;99.90;;;;;;5015418;28;20218;-79
2022/01/19 00:16:10;;;;;;;50.30;28.43;;;5.00;99.90;;;;;;5008873;28;20189;-79
2022/01/19 00:18:36;;;;;;;48.07;27.50;;;4.90;99.90;;;;;;5037841;28;20162;-79
2022/01/19 00:21:02;;;;;;;54.43;29.17;;;4.90;99.90;;;;;;5018911;28;20180;-79
2022/01/19 00:23:27;;;;;;;50.00;27.37;;;4.90;99.90;;;;;;5018351;28;20217;-79
2022/01/19 00:25:55;;;;;;;50.90;27.77;;;4.90;99.90;;;;;;5014986;28;20199;-77
2022/01/19 00:28:21;;;;;;;53.93;26.70;;;4.90;99.90;;;;;;5025518;28;20187;-80
2022/01/19 00:30:50;;;;;;;46.87;26.47;;;5.00;99.90;;;;;;5018580;28;20175;-79
2022/01/19 00:33:23;;;;;;;50.97;27.07;;;4.90;99.90;;;;;;5022898;28;20221;-78
2022/01/19 00:36:16;;;;;;;45.30;26.17;;;4.80;99.90;;;;;;5033235;28;20190;-79
2022/01/19 00:38:44;;;;;;;45.37;26.30;;;4.80;99.90;;;;;;5020754;28;20217;-79
2022/01/19 00:41:10;;;;;;;49.57;25.73;;;4.80;99.90;;;;;;5014828;28;20293;-79
2022/01/19 00:43:37;;;;;;;44.40;23.83;;;4.70;99.90;;;;;;5014525;28;20223;-80
2022/01/19 00:46:04;;;;;;;46.13;26.10;;;4.80;99.90;;;;;;5019690;28;20191;-80
2022/01/19 00:48:30;;;;;;;48.30;24.97;;;4.70;99.90;;;;;;5013246;28;20167;-79
2022/01/19 00:50:57;;;;;;;40.80;22.60;;;4.70;99.90;;;;;;5018334;28;20209;-81
2022/01/19 00:53:29;;;;;;;44.13;24.43;;;4.80;99.90;;;;;;5016821;28;20236;-79
2022/01/19 00:55:56;;;;;;;44.83;25.43;;;4.70;99.90;;;;;;5017987;28;20782;-79
2022/01/19 00:58:22;;;;;;;46.10;25.57;;;4.70;99.90;;;;;;5005233;28;20178;-79
2022/01/19 01:00:48;;;;;;;49.33;28.03;;;4.70;99.90;;;;;;5017379;28;20273;-79
2022/01/19 01:03:17;;;;;;;43.33;23.97;;;4.70;99.90;;;;;;5011526;28;20219;-80
2022/01/19 01:05:44;;;;;;;44.03;25.63;;;4.70;99.90;;;;;;5017807;28;20175;-77
2022/01/19 01:08:10;;;;;;;48.27;25.33;;;4.70;99.90;;;;;;5015795;28;20182;-78
2022/01/19 01:10:42;;;;;;;40.87;23.97;;;4.70;99.90;;;;;;5024351;28;20188;-78
2022/01/19 01:15:25;;;;;;;42.67;24.37;;;4.80;99.90;;;;;;5016830;28;20167;-78
2022/01/19 01:16:04;;;;;;;41.73;23.30;;;4.80;99.90;;;;;;5031989;28;20254;-79
2022/01/19 01:18:34;;;;;;;40.47;23.73;;;4.70;99.90;;;;;;5024595;28;20248;-78
2022/01/19 01:21:02;;;;;;;45.37;24.17;;;4.70;99.90;;;;;;5025500;28;20170;-78
2022/01/19 01:23:32;;;;;;;43.80;23.83;;;4.70;99.90;;;;;;5023463;28;20279;-78
2022/01/19 01:26:07;;;;;;;41.53;23.63;;;4.70;99.90;;;;;;5018615;28;20190;-81
2022/01/19 01:28:33;;;;;;;38.83;22.43;;;4.70;99.90;;;;;;5018226;28;20175;-79
2022/01/19 01:30:58;;;;;;;37.60;21.73;;;4.70;99.90;;;;;;5009633;28;20183;-79
2022/01/19 01:33:24;;;;;;;36.73;20.70;;;4.60;99.90;;;;;;5040146;28;20212;-78
2022/01/19 01:35:59;;;;;;;39.10;22.40;;;4.70;99.90;;;;;;5025647;28;20175;-80
2022/01/19 01:38:26;;;;;;;34.77;21.10;;;4.70;99.90;;;;;;5008450;28;20182;-79
2022/01/19 01:40:51;;;;;;;35.47;22.10;;;4.70;99.90;;;;;;5024112;28;20172;-78
2022/01/19 01:43:17;;;;;;;40.73;21.33;;;4.80;99.90;;;;;;5018157;28;20265;-79
2022/01/19 01:45:46;;;;;;;31.80;19.63;;;4.80;99.90;;;;;;5023908;28;20191;-79
2022/01/19 01:48:20;;;;;;;31.57;20.03;;;4.80;99.90;;;;;;5009705;28;20198;-79
2022/01/19 01:53:45;;;;;;;38.87;20.87;;;4.70;99.90;;;;;;5032687;28;20210;-78
2022/01/19 01:56:14;;;;;;;34.73;20.20;;;4.80;99.90;;;;;;5017994;28;20218;-78
2022/01/19 01:58:43;;;;;;;35.97;20.43;;;4.70;99.90;;;;;;5006852;28;20179;-79
2022/01/19 02:01:32;;;;;;;36.20;20.63;;;4.70;99.90;;;;;;5028925;28;20170;-77
2022/01/19 02:04:03;;;;;;;36.77;21.43;;;4.70;99.90;;;;;;5026013;28;20219;-79
2022/01/19 02:06:33;;;;;;;36.17;21.93;;;4.70;99.90;;;;;;5032170;28;20212;-80
2022/01/19 02:09:17;;;;;;;36.00;20.33;;;4.70;99.90;;;;;;5015697;28;20191;-79
2022/01/19 02:23:04;;;;;;;46.20;25.07;;;4.50;99.90;;;;;;5018978;28;20179;-79
2022/01/19 02:25:36;;;;;;;39.73;22.27;;;4.40;99.90;;;;;;5018311;28;20200;-77
2022/01/19 02:41:38;;;;;;;32.70;18.90;;;4.50;99.90;;;;;;5039944;28;20178;-79
2022/01/19 02:44:05;;;;;;;31.43;18.20;;;4.40;99.90;;;;;;5033524;28;20283;-78
2022/01/19 02:49:09;;;;;;;34.97;18.87;;;4.50;99.90;;;;;;5020125;28;20181;-79
2022/01/19 02:49:26;;;;;;;27.20;17.37;;;4.50;99.90;;;;;;5035868;28;20199;-78
2022/01/19 02:51:53;;;;;;;32.27;16.83;;;4.50;99.90;;;;;;5016665;28;20334;-78
2022/01/19 02:54:22;;;;;;;28.77;15.80;;;4.40;99.90;;;;;;5008827;28;20213;-78
2022/01/19 02:56:52;;;;;;;30.90;15.93;;;4.30;99.90;;;;;;5035694;28;20181;-79
2022/01/19 03:08:44;;;;;;;38.10;16.70;;;4.10;99.90;;;;;;4975008;28;20201;-78
2022/01/19 03:10:50;;;;;;;30.80;16.27;;;4.10;99.90;;;;;;5030314;28;20269;-78
2022/01/19 03:13:16;;;;;;;32.83;16.67;;;4.20;99.90;;;;;;4990592;28;20214;-79
2022/01/19 03:15:42;;;;;;;31.03;16.07;;;4.20;99.90;;;;;;5006071;28;20253;-78
2022/01/19 03:18:09;;;;;;;30.67;15.83;;;4.30;99.90;;;;;;5000806;28;20206;-78
2022/01/19 03:20:35;;;;;;;36.20;17.03;;;4.30;99.90;;;;;;5001479;28;20598;-79
2022/01/19 03:23:05;;;;;;;33.57;16.47;;;4.40;99.90;;;;;;4999893;28;20178;-78
2022/01/19 03:25:38;;;;;;;33.43;16.37;;;4.50;99.90;;;;;;5000886;28;20210;-78
2022/01/19 03:28:05;;;;;;;30.43;15.40;;;4.60;99.90;;;;;;5010858;28;20227;-78
2022/01/19 03:30:31;;;;;;;31.97;14.57;;;4.50;99.90;;;;;;5013139;28;20171;-78
2022/01/19 03:32:57;;;;;;;28.10;14.43;;;4.50;99.90;;;;;;5003152;28;20198;-79
2022/01/19 03:35:23;;;;;;;30.23;14.60;;;4.50;99.90;;;;;;5001541;28;20166;-78
2022/01/19 03:37:48;;;;;;;26.07;13.77;;;4.40;99.90;;;;;;5014124;28;20469;-78
2022/01/19 03:40:14;;;;;;;24.10;13.20;;;4.50;99.90;;;;;;5013772;28;20183;-78
2022/01/19 03:42:40;;;;;;;27.33;13.30;;;4.50;99.90;;;;;;4998779;28;20175;-78
2022/01/19 03:45:08;;;;;;;27.30;13.17;;;4.50;99.90;;;;;;4999289;28;20582;-79
2022/01/19 03:50:34;;;;;;;28.73;13.83;;;4.60;99.90;;;;;;4976674;28;20207;-79
2022/01/19 03:53:00;;;;;;;26.13;13.17;;;4.50;99.90;;;;;;5002338;28;20175;-79
2022/01/19 03:55:26;;;;;;;26.37;12.13;;;4.50;99.90;;;;;;5005846;28;20278;-79
2022/01/19 03:57:51;;;;;;;28.43;13.80;;;4.50;99.90;;;;;;4997551;28;20179;-79
2022/01/19 04:00:26;;;;;;;27.67;13.30;;;4.60;99.90;;;;;;5009504;28;20192;-79
2022/01/19 04:02:51;;;;;;;25.90;12.83;;;4.70;99.90;;;;;;5008912;28;20185;-80
2022/01/19 04:05:24;;;;;;;25.90;13.10;;;4.60;99.90;;;;;;5002547;28;20282;-79
2022/01/19 04:07:51;;;;;;;33.53;13.80;;;4.40;99.90;;;;;;5017721;28;20201;-80
2022/01/19 04:10:17;;;;;;;29.80;12.90;;;4.30;99.90;;;;;;5007877;28;20163;-80
2022/01/19 04:13:08;;;;;;;24.00;12.77;;;4.30;99.90;;;;;;5001958;28;20584;-80
2022/01/19 04:15:34;;;;;;;30.07;13.13;;;4.30;99.90;;;;;;5003378;28;20198;-79
2022/01/19 04:18:00;;;;;;;24.47;13.30;;;4.40;99.90;;;;;;4994105;28;20178;-79
2022/01/19 04:20:26;;;;;;;26.17;12.70;;;4.30;99.90;;;;;;5001256;28;20631;-79
2022/01/19 04:22:52;;;;;;;25.80;12.83;;;4.40;99.90;;;;;;4994475;28;20220;-79
2022/01/19 04:25:18;;;;;;;31.57;13.67;;;4.40;99.90;;;;;;4996689;28;20212;-80
2022/01/19 04:27:48;;;;;;;28.47;13.23;;;4.50;99.90;;;;;;5005235;28;20199;-79
2022/01/19 04:30:15;;;;;;;25.87;12.93;;;4.50;99.90;;;;;;4996040;28;20171;-78
2022/01/19 04:33:07;;;;;;;27.90;13.40;;;4.50;99.90;;;;;;5005993;28;20178;-79
2022/01/19 04:35:47;;;;;;;25.93;12.57;;;4.40;99.90;;;;;;5008196;28;20180;-79
2022/01/19 04:44:14;;;;;;;25.63;12.93;;;4.40;99.90;;;;;;5024669;28;20214;-79
2022/01/19 04:47:17;;;;;;;22.47;12.47;;;4.30;99.90;;;;;;5007430;28;20629;-79
2022/01/19 05:04:29;;;;;;;23.90;12.40;;;4.20;99.90;;;;;;5025545;28;20221;-78
2022/01/19 05:06:44;;;;;;;23.97;12.33;;;4.10;99.90;;;;;;5010278;28;20181;-79
2022/01/19 05:09:26;;;;;;;23.60;12.73;;;4.10;99.90;;;;;;5003722;28;20190;-79
2022/01/19 05:14:36;;;;;;;27.73;12.53;;;4.00;99.90;;;;;;5013804;28;20210;-78
2022/01/19 05:17:02;;;;;;;24.13;13.23;;;4.00;99.90;;;;;;5000043;28;20241;-78
2022/01/19 05:19:29;;;;;;;29.87;13.60;;;4.00;99.90;;;;;;4999540;28;20175;-79
2022/01/19 05:21:54;;;;;;;23.27;13.40;;;3.90;99.90;;;;;;5008446;28;20182;-78
2022/01/19 05:24:40;;;;;;;23.73;12.03;;;3.90;99.90;;;;;;5009798;28;20205;-78
2022/01/19 05:27:24;;;;;;;24.73;13.10;;;4.00;99.90;;;;;;4996448;28;20166;-79
2022/01/19 05:29:50;;;;;;;23.67;12.90;;;4.00;99.90;;;;;;4998443;28;20170;-79
2022/01/19 05:32:45;;;;;;;29.60;13.00;;;4.00;99.90;;;;;;4982267;28;20178;-78
2022/01/19 05:35:10;;;;;;;26.83;12.90;;;4.00;99.90;;;;;;4993310;28;20194;-78
2022/01/19 05:37:55;;;;;;;23.13;12.80;;;4.00;99.90;;;;;;5009740;28;20254;-78
2022/01/19 05:40:38;;;;;;;26.30;13.20;;;4.10;99.90;;;;;;5004555;28;20180;-78
2022/01/19 05:43:04;;;;;;;24.80;12.30;;;4.00;99.90;;;;;;5000421;28;20194;-78
2022/01/19 05:45:30;;;;;;;24.67;12.37;;;4.00;99.90;;;;;;5010446;28;20222;-78
2022/01/19 05:48:05;;;;;;;21.97;12.43;;;4.10;99.90;;;;;;5000455;28;20170;-78
2022/01/19 05:50:32;;;;;;;24.33;12.07;;;3.90;99.90;;;;;;4999071;28;20637;-78
2022/01/19 05:53:15;;;;;;;24.27;12.80;;;3.90;99.90;;;;;;5148817;27;20741;-78
2022/01/19 05:55:40;;;;;;;23.53;12.37;;;3.80;99.90;;;;;;5127688;28;20564;-78
2022/01/19 05:58:06;;;;;;;24.23;12.80;;;3.80;99.90;;;;;;5095245;28;20645;-77
2022/01/19 06:00:32;;;;;;;29.40;13.07;;;3.80;99.90;;;;;;5095614;28;20174;-78
2022/01/19 06:03:02;;;;;;;29.97;13.47;;;3.90;99.90;;;;;;5112118;27;20178;-79
2022/01/19 06:05:38;;;;;;;30.00;13.70;;;3.90;99.90;;;;;;5107649;28;20633;-78
2022/01/19 06:10:59;;;;;;;37.77;17.07;;;3.90;99.90;;;;;;5113683;28;20187;-78
2022/01/19 06:13:26;;;;;;;39.47;16.70;;;3.90;99.90;;;;;;5098749;28;20732;-79
2022/01/19 06:15:52;;;;;;;39.97;19.50;;;4.00;99.90;;;;;;5096513;28;20194;-78
2022/01/19 06:18:20;;;;;;;39.07;19.23;;;4.10;99.90;;;;;;5111681;28;20190;-78
2022/01/19 06:20:46;;;;;;;42.97;21.47;;;4.00;99.90;;;;;;5087552;28;20159;-78
2022/01/19 06:23:20;;;;;;;48.73;21.47;;;4.00;99.90;;;;;;5117167;27;20183;-78
2022/01/19 06:26:06;;;;;;;52.37;21.97;;;4.10;99.90;;;;;;5118902;28;20178;-78
2022/01/19 06:28:33;;;;;;;53.10;23.80;;;4.10;99.90;;;;;;5117823;28;20178;-78
2022/01/19 06:30:58;;;;;;;53.57;22.83;;;4.10;99.90;;;;;;5101376;28;20238;-78
2022/01/19 06:33:24;;;;;;;52.23;24.67;;;4.20;99.90;;;;;;5099410;28;20642;-78
2022/01/19 06:35:50;;;;;;;51.57;25.17;;;4.30;99.90;;;;;;5099469;28;20172;-79
2022/01/19 06:38:29;;;;;;;55.83;27.67;;;4.30;99.90;;;;;;5108610;28;20167;-79
2022/01/19 06:41:02;;;;;;;54.93;26.87;;;4.40;99.90;;;;;;5100691;28;20178;-79
2022/01/19 06:43:28;;;;;;;58.53;26.77;;;4.40;99.90;;;;;;5094681;28;20190;-78
2022/01/19 06:45:56;;;;;;;52.50;24.80;;;4.30;99.90;;;;;;5095277;28;20179;-78
2022/01/19 06:48:21;;;;;;;51.93;25.67;;;4.30;99.90;;;;;;5107187;28;20235;-78
2022/01/19 06:50:47;;;;;;;53.93;24.23;;;4.30;99.90;;;;;;5116293;28;20186;-78
2022/01/19 06:53:14;;;;;;;42.10;24.00;;;4.20;99.90;;;;;;5129623;27;20186;-78
2022/01/19 06:55:47;;;;;;;49.20;23.33;;;4.30;99.90;;;;;;5130777;28;20265;-79
2022/01/19 06:58:13;;;;;;;48.77;24.37;;;4.40;99.90;;;;;;5111274;28;20175;-79
2022/01/19 07:00:45;;;;;;;44.13;23.60;;;4.40;99.90;;;;;;5130333;28;20235;-78
2022/01/19 07:03:39;;;;;;;43.00;22.90;;;4.30;99.90;;;;;;5126525;28;20209;-78
2022/01/19 07:06:19;;;;;;;50.73;24.27;;;4.40;99.90;;;;;;5101065;28;20201;-78
2022/01/19 07:09:08;;;;;;;47.33;23.00;;;4.40;99.90;;;;;;5119405;28;20194;-78
2022/01/19 07:11:37;;;;;;;49.97;24.27;;;4.40;99.90;;;;;;5096147;28;20666;-77
2022/01/19 07:14:05;;;;;;;48.00;23.73;;;4.50;99.90;;;;;;5087419;28;20188;-78
2022/01/19 07:16:30;;;;;;;42.23;22.40;;;4.50;99.90;;;;;;5097531;28;20179;-78
2022/01/19 07:18:56;;;;;;;43.70;22.67;;;4.50;99.90;;;;;;5119184;28;20190;-78
2022/01/19 07:21:23;;;;;;;52.23;22.73;;;4.50;99.90;;;;;;5093147;28;20185;-78
2022/01/19 07:23:53;;;;;;;44.47;23.57;;;4.60;99.90;;;;;;5107601;28;20195;-78
2022/01/19 07:26:19;;;;;;;49.80;24.93;;;4.50;99.90;;;;;;5111138;28;20174;-78
2022/01/19 07:28:46;;;;;;;39.53;22.37;;;4.50;99.90;;;;;;5101724;28;20206;-80
2022/01/19 07:31:12;;;;;;;50.97;24.40;;;4.60;99.90;;;;;;5095227;28;20195;-80
2022/01/19 07:33:38;;;;;;;40.80;22.73;;;4.50;99.90;;;;;;5099244;28;20181;-80
2022/01/19 07:36:04;;;;;;;47.47;23.87;;;4.50;99.90;;;;;;5093812;28;20176;-79
2022/01/19 07:38:30;;;;;;;46.00;23.80;;;4.50;99.90;;;;;;5097425;28;20183;-79
2022/01/19 07:40:56;;;;;;;45.30;24.00;;;4.50;99.90;;;;;;5094650;28;20182;-79
2022/01/19 07:43:23;;;;;;;47.23;24.90;;;4.50;99.90;;;;;;5097456;28;20191;-79
2022/01/19 07:46:15;;;;;;;48.83;24.77;;;4.50;99.90;;;;;;5114051;28;20616;-79
2022/01/19 07:48:51;;;;;;;46.67;24.83;;;4.40;99.90;;;;;;5093543;28;20188;-80
2022/01/19 07:51:50;;;;;;;45.23;23.33;;;4.50;99.90;;;;;;5108215;28;20187;-79
2022/01/19 07:54:30;;;;;;;44.10;24.17;;;4.60;99.90;;;;;;5099767;28;20270;-78
2022/01/19 07:57:14;;;;;;;50.83;25.13;;;4.50;99.90;;;;;;5095448;28;20219;-79
2022/01/19 08:00:04;;;;;;;44.83;24.43;;;4.50;99.90;;;;;;5113354;28;20196;-80
2022/01/19 08:02:42;;;;;;;54.67;26.63;;;4.60;99.90;;;;;;5111720;28;20211;-80
2022/01/19 08:05:14;;;;;;;53.13;25.57;;;4.50;99.90;;;;;;5115183;28;20209;-80
2022/01/19 08:07:43;;;;;;;48.03;25.13;;;4.50;99.90;;;;;;5101179;28;20171;-80
2022/01/19 08:10:11;;;;;;;49.67;26.57;;;4.50;99.90;;;;;;5098065;28;20159;-79
2022/01/19 08:12:37;;;;;;;52.10;26.60;;;4.50;99.90;;;;;;5098889;28;20262;-79
2022/01/19 08:15:04;;;;;;;51.50;26.93;;;4.50;99.90;;;;;;5093812;28;20214;-79
2022/01/19 08:17:34;;;;;;;51.33;26.77;;;4.60;99.90;;;;;;5110744;28;20177;-79
2022/01/19 08:20:01;;;;;;;58.40;29.23;;;4.50;99.90;;;;;;5093592;28;20176;-79
2022/01/19 08:22:27;;;;;;;62.60;29.70;;;4.50;99.90;;;;;;5097701;28;20171;-78
2022/01/19 08:25:13;;;;;;;55.47;29.30;;;4.50;99.90;;;;;;5103564;28;20225;-79
2022/01/19 08:27:39;;;;;;;60.33;30.30;;;4.40;99.90;;;;;;5095716;28;20179;-80
2022/01/19 08:30:13;;;;;;;63.77;29.97;;;4.30;99.90;;;;;;5102542;28;20176;-80
2022/01/19 08:32:40;;;;;;;60.00;30.93;;;4.30;99.90;;;;;;5097866;28;20183;-80
2022/01/19 08:35:13;;;;;;;64.50;30.43;;;4.40;99.90;;;;;;5100087;28;20187;-80
2022/01/19 08:37:58;;;;;;;59.47;29.47;;;4.40;99.90;;;;;;5117786;28;20197;-79
2022/01/19 08:40:28;;;;;;;58.27;30.20;;;4.40;99.90;;;;;;5095768;28;20187;-79
2022/01/19 08:43:05;;;;;;;63.23;30.07;;;4.40;99.90;;;;;;5093976;28;20182;-79
2022/01/19 08:45:31;;;;;;;61.73;30.90;;;4.30;99.90;;;;;;5091557;28;20175;-79
2022/01/19 08:47:57;;;;;;;59.57;29.57;;;4.30;99.90;;;;;;5090296;28;20163;-79
2022/01/19 08:50:36;;;;;;;56.83;30.87;;;4.40;99.90;;;;;;5092677;28;20183;-79
2022/01/19 08:53:10;;;;;;;57.60;31.43;;;4.40;99.90;;;;;;5107238;28;20203;-79
2022/01/19 08:55:49;;;;;;;59.33;29.73;;;4.40;99.90;;;;;;5079715;28;20571;-79
2022/01/19 08:58:21;;;;;;;64.43;31.70;;;4.40;99.90;;;;;;5082865;28;20175;-78
2022/01/19 09:00:59;;;;;;;55.87;28.30;;;4.30;99.90;;;;;;5083245;28;20199;-78
2022/01/19 09:03:25;;;;;;;64.93;30.00;;;4.20;99.90;;;;;;5080605;28;20194;-79
2022/01/19 09:05:51;;;;;;;65.00;30.23;;;4.10;99.90;;;;;;5081753;28;20172;-77
2022/01/19 09:08:17;;;;;;;63.83;30.90;;;4.10;99.90;;;;;;5082134;28;20224;-78
2022/01/19 09:10:45;;;;;;;63.73;31.67;;;4.20;99.90;;;;;;5083184;28;20171;-78
2022/01/19 09:13:11;;;;;;;61.50;31.50;;;4.20;99.90;;;;;;5082957;28;20203;-78
2022/01/19 09:15:37;;;;;;;61.10;30.67;;;4.20;99.90;;;;;;5083082;28;20262;-79
2022/01/19 09:18:04;;;;;;;62.50;32.40;;;4.20;99.90;;;;;;5081595;28;20222;-79
2022/01/19 09:20:30;;;;;;;66.03;33.13;;;4.30;99.90;;;;;;5079581;28;20168;-79
2022/01/19 09:22:55;;;;;;;63.37;31.40;;;4.30;99.90;;;;;;5080767;28;20180;-79
2022/01/19 09:25:21;;;;;;;59.53;30.77;;;4.50;99.90;;;;;;5092944;28;20282;-79
2022/01/19 09:27:47;;;;;;;55.50;27.97;;;4.40;99.90;;;;;;5096024;28;20167;-79
2022/01/19 09:30:19;;;;;;;58.57;30.47;;;4.40;99.90;;;;;;5076809;28;20171;-80
2022/01/19 09:32:55;;;;;;;56.17;30.43;;;4.50;99.90;;;;;;5084158;28;20191;-79
2022/01/19 09:35:25;;;;;;;54.07;29.83;;;4.50;99.90;;;;;;5081684;28;20190;-79
2022/01/19 09:37:54;;;;;;;55.87;29.57;;;4.40;99.90;;;;;;5082370;28;20163;-80
2022/01/19 09:40:20;;;;;;;60.67;31.40;;;4.50;99.90;;;;;;5077668;28;20195;-79
2022/01/19 09:42:46;;;;;;;61.13;31.43;;;4.50;99.90;;;;;;5096868;28;20280;-80
2022/01/19 09:48:12;;;;;;;57.73;31.00;;;4.70;99.90;;;;;;5079423;28;20175;-78
2022/01/19 09:50:38;;;;;;;59.83;28.73;;;4.80;99.90;;;;;;5082168;28;20264;-79
2022/01/19 09:53:07;;;;;;;52.00;28.50;;;4.80;99.90;;;;;;5079705;28;20681;-78
2022/01/19 09:55:34;;;;;;;56.27;29.07;;;4.70;99.90;;;;;;5080743;28;20172;-79
2022/01/19 09:58:00;;;;;;;57.27;30.33;;;4.70;99.90;;;;;;5078839;28;20235;-80
2022/01/19 10:00:27;;;;;;;58.77;30.30;;;4.80;99.90;;;;;;5099466;28;20183;-81
2022/01/19 10:03:14;;;;;;;54.60;29.63;;;4.80;99.90;;;;;;5076760;28;20184;-79
2022/01/19 10:05:58;;;;;;;61.37;31.20;;;4.70;99.90;;;;;;5082126;28;20679;-80
2022/01/19 10:08:42;;;;;;;57.43;29.70;;;4.70;99.90;;;;;;5079127;28;20258;-79
2022/01/19 10:11:15;;;;;;;60.53;30.13;;;4.70;99.90;;;;;;5090987;28;20232;-78
2022/01/19 10:17:02;;;;;;;63.10;30.83;;;4.60;99.90;;;;;;5096662;28;20178;-78
2022/01/19 10:19:37;;;;;;;59.57;31.03;;;4.60;99.90;;;;;;5076279;28;20212;-79
2022/01/19 10:22:07;;;;;;;55.67;28.40;;;4.50;99.90;;;;;;5088480;28;20196;-77
2022/01/19 10:24:41;;;;;;;55.90;28.73;;;4.50;99.90;;;;;;5082175;28;20196;-80
2022/01/19 10:27:32;;;;;;;58.33;29.43;;;4.50;99.90;;;;;;5080576;28;20247;-79
2022/01/19 10:30:16;;;;;;;59.07;29.40;;;4.50;99.90;;;;;;5107494;28;20191;-80
2022/01/19 10:32:55;;;;;;;54.27;27.70;;;4.50;99.90;;;;;;5089221;28;20202;-78
2022/01/19 10:35:28;;;;;;;51.97;28.17;;;4.50;99.90;;;;;;5095943;28;20190;-79
2022/01/19 10:38:30;;;;;;;59.87;28.73;;;4.50;99.90;;;;;;5081456;28;20176;-78
2022/01/19 10:41:02;;;;;;;52.20;27.30;;;4.50;99.90;;;;;;5095670;28;20207;-79
2022/01/19 10:43:41;;;;;;;49.43;27.53;;;4.50;99.90;;;;;;5097441;28;20192;-82
2022/01/19 10:46:30;;;;;;;54.87;29.03;;;4.50;99.90;;;;;;5081277;28;20175;-78
2022/01/19 10:49:16;;;;;;;48.97;27.30;;;4.50;99.90;;;;;;5103038;28;20183;-78
2022/01/19 10:51:48;;;;;;;52.97;28.37;;;4.40;99.90;;;;;;5099729;28;20207;-79
2022/01/19 10:54:26;;;;;;;47.67;27.43;;;4.40;99.90;;;;;;5078033;28;20218;-79
2022/01/19 10:56:58;;;;;;;50.37;27.07;;;4.40;99.90;;;;;;5079235;28;20175;-79
2022/01/19 10:59:29;;;;;;;55.40;28.63;;;4.30;99.90;;;;;;5083071;28;20179;-78
2022/01/19 11:02:00;;;;;;;51.17;29.23;;;4.30;99.90;;;;;;5083203;28;20186;-79
2022/01/19 11:04:38;;;;;;;58.90;29.63;;;4.20;99.90;;;;;;5083492;28;20358;-80
2022/01/19 11:07:11;;;;;;;53.43;27.23;;;4.30;99.90;;;;;;5083571;28;20190;-79
2022/01/19 11:09:46;;;;;;;53.63;28.03;;;4.20;99.90;;;;;;5085489;28;20198;-79
2022/01/19 11:12:19;;;;;;;50.53;29.03;;;4.10;99.90;;;;;;5084467;28;20262;-79
2022/01/19 11:14:45;;;;;;;56.63;27.43;;;4.10;99.90;;;;;;5085214;28;20285;-78
2022/01/19 11:17:20;;;;;;;55.53;27.77;;;4.10;99.90;;;;;;5083945;28;20175;-79
2022/01/19 11:20:08;;;;;;;49.17;26.60;;;4.10;99.90;;;;;;5099755;28;20634;-78
2022/01/19 11:22:42;;;;;;;51.23;28.03;;;4.10;99.90;;;;;;5108698;28;20198;-80
2022/01/19 11:25:17;;;;;;;51.33;27.40;;;4.20;99.90;;;;;;5086776;28;20194;-79
2022/01/19 11:27:46;;;;;;;50.17;27.93;;;4.20;99.90;;;;;;5097761;28;20182;-79
2022/01/19 11:30:26;;;;;;;55.13;28.50;;;4.00;99.90;;;;;;5082174;28;20175;-78
2022/01/19 11:33:14;;;;;;;52.10;28.70;;;4.10;99.90;;;;;;5083073;28;20202;-78
2022/01/19 11:36:04;;;;;;;59.60;29.07;;;4.10;99.90;;;;;;5081631;28;20515;-79
2022/01/19 11:38:44;;;;;;;48.43;26.93;;;4.10;99.90;;;;;;5081657;28;20202;-79
2022/01/19 11:41:09;;;;;;;48.83;26.57;;;4.10;99.90;;;;;;5083544;28;20172;-79
2022/01/19 11:43:56;;;;;;;45.17;25.90;;;4.10;99.90;;;;;;5099391;28;20712;-78
2022/01/19 11:46:33;;;;;;;51.27;27.13;;;4.00;99.90;;;;;;5098129;28;20171;-78
2022/01/19 11:49:04;;;;;;;51.87;27.17;;;4.00;99.90;;;;;;5081285;28;20171;-79
2022/01/19 11:51:54;;;;;;;52.57;26.30;;;3.90;99.90;;;;;;5080538;28;20665;-78
2022/01/19 11:54:28;;;;;;;50.60;27.60;;;3.70;99.90;;;;;;5097756;28;20203;-78
2022/01/19 11:57:06;;;;;;;50.00;27.60;;;3.80;99.90;;;;;;5082652;28;20219;-78
2022/01/19 11:59:44;;;;;;;51.40;27.13;;;3.70;99.90;;;;;;5083209;28;20177;-78
2022/01/19 12:02:24;;;;;;;51.90;26.67;;;3.70;99.90;;;;;;5084269;28;20204;-79
2022/01/19 12:04:59;;;;;;;51.80;26.93;;;3.70;99.90;;;;;;5086804;28;20198;-77
2022/01/19 12:07:37;;;;;;;50.43;27.50;;;3.70;99.90;;;;;;5100390;28;20201;-78
2022/01/19 12:10:07;;;;;;;53.13;28.57;;;3.60;99.90;;;;;;5111583;28;20211;-77
2022/01/19 12:12:39;;;;;;;52.20;28.37;;;3.70;99.90;;;;;;5110740;28;20206;-79
2022/01/19 12:15:08;;;;;;;54.50;27.33;;;3.70;99.90;;;;;;5092897;28;20199;-78
2022/01/19 12:17:54;;;;;;;53.00;28.70;;;3.70;99.90;;;;;;5084870;28;20167;-79
2022/01/19 12:20:45;;;;;;;50.90;27.93;;;3.60;99.90;;;;;;5080846;28;20633;-79
2022/01/19 12:23:27;;;;;;;48.90;28.27;;;3.60;99.90;;;;;;5099288;28;20197;-80
2022/01/19 12:25:58;;;;;;;50.43;28.60;;;3.80;99.90;;;;;;5080861;28;20187;-78
2022/01/19 12:28:44;;;;;;;45.27;27.53;;;3.90;99.90;;;;;;5095161;28;20545;-79
2022/01/19 12:31:32;;;;;;;43.43;28.10;;;3.90;99.90;;;;;;5072800;28;20183;-78
2022/01/19 12:34:09;;;;;;;42.80;27.40;;;3.90;99.90;;;;;;5104783;28;20199;-79
2022/01/19 12:36:48;;;;;;;45.73;27.60;;;3.80;99.90;;;;;;5106103;28;20163;-78
2022/01/19 12:39:26;;;;;;;42.07;27.63;;;3.80;99.90;;;;;;5098647;28;20610;-78
2022/01/19 12:42:19;;;;;;;45.67;29.07;;;3.90;99.90;;;;;;5079700;28;20645;-79
2022/01/19 12:44:53;;;;;;;42.10;26.87;;;3.90;99.90;;;;;;5081273;28;20199;-78
2022/01/19 12:47:25;;;;;;;44.87;28.87;;;3.90;99.90;;;;;;5080193;28;20174;-78
2022/01/19 12:50:10;;;;;;;44.70;27.80;;;3.80;99.90;;;;;;5080847;28;20538;-79
2022/01/19 12:52:42;;;;;;;43.33;27.60;;;3.90;99.90;;;;;;5085861;28;20261;-78
2022/01/19 12:55:26;;;;;;;42.30;27.87;;;3.90;99.90;;;;;;5081182;28;20191;-77
2022/01/19 12:57:55;;;;;;;48.57;29.70;;;3.90;99.90;;;;;;5071766;28;20175;-78
2022/01/19 13:00:27;;;;;;;41.90;28.10;;;4.00;99.90;;;;;;5086740;28;20171;-79
2022/01/19 13:02:53;;;;;;;42.33;26.40;;;4.00;99.90;;;;;;5092582;28;20179;-78
2022/01/19 13:05:20;;;;;;;45.90;28.83;;;4.10;99.90;;;;;;5096313;28;20191;-78
2022/01/19 13:07:53;;;;;;;43.77;28.33;;;4.20;99.90;;;;;;5096370;28;20159;-78
2022/01/19 13:13:07;;;;;;;43.70;28.70;;;4.10;99.90;;;;;;5112760;28;20266;-79
2022/01/19 13:15:50;;;;;;;42.37;27.10;;;4.20;99.90;;;;;;5087587;28;20191;-79
2022/01/19 13:18:37;;;;;;;47.97;29.67;;;4.10;99.90;;;;;;5069969;28;20259;-79
2022/01/19 13:21:12;;;;;;;43.90;27.57;;;4.00;99.90;;;;;;5084647;28;20172;-79
2022/01/19 13:24:04;;;;;;;41.10;27.93;;;4.00;99.90;;;;;;5085810;28;20641;-79
2022/01/19 13:26:42;;;;;;;44.63;28.80;;;4.10;99.90;;;;;;5083843;28;20176;-78
2022/01/19 13:29:26;;;;;;;46.90;28.30;;;4.10;99.90;;;;;;5097269;28;20246;-78
2022/01/19 13:31:59;;;;;;;42.00;27.70;;;4.10;99.90;;;;;;5104990;28;20195;-79
2022/01/19 13:34:25;;;;;;;43.73;27.43;;;4.10;99.90;;;;;;5087433;28;20187;-77
2022/01/19 13:36:59;;;;;;;46.57;27.73;;;4.00;99.90;;;;;;5092666;28;20180;-77
2022/01/19 13:39:31;;;;;;;44.40;27.97;;;4.00;99.90;;;;;;5088634;28;20206;-79
2022/01/19 13:41:58;;;;;;;49.20;28.97;;;4.10;99.90;;;;;;5089850;28;20190;-79
2022/01/19 13:44:31;;;;;;;45.43;28.43;;;4.10;99.90;;;;;;5090056;28;20199;-78
2022/01/19 13:47:11;;;;;;;45.13;28.03;;;4.20;99.90;;;;;;5084681;28;20569;-78
2022/01/19 13:49:39;;;;;;;46.73;27.83;;;4.20;99.90;;;;;;5085847;28;20182;-77
2022/01/19 13:52:06;;;;;;;45.47;27.40;;;4.20;99.90;;;;;;5085532;28;20597;-78
2022/01/19 13:54:37;;;;;;;43.67;28.00;;;4.20;99.90;;;;;;5092542;28;20263;-79
2022/01/19 13:57:04;;;;;;;51.37;28.53;;;4.20;99.90;;;;;;5084721;28;20168;-79
2022/01/19 13:59:30;;;;;;;43.10;27.67;;;4.20;99.90;;;;;;5118444;28;20259;-79
2022/01/19 14:02:03;;;;;;;47.33;28.27;;;4.20;99.90;;;;;;5093029;28;20175;-79
2022/01/19 14:04:32;;;;;;;47.50;28.83;;;4.20;99.90;;;;;;5110512;28;20262;-79
2022/01/19 14:07:16;;;;;;;51.40;30.27;;;4.20;99.90;;;;;;5088724;28;20183;-78
2022/01/19 14:09:42;;;;;;;44.70;27.93;;;4.20;99.90;;;;;;5089414;28;20178;-79
2022/01/19 14:12:11;;;;;;;47.83;27.90;;;4.20;99.90;;;;;;5104147;28;20228;-78
2022/01/19 14:14:49;;;;;;;47.40;28.57;;;4.20;99.90;;;;;;5084695;28;20191;-78
2022/01/19 14:17:34;;;;;;;49.63;28.20;;;4.20;99.90;;;;;;5077239;28;20174;-78